createdAt,value
2022-08-12T00:00:47.378Z,101859.22
2022-08-12T00:03:32.820Z,101852.16
2022-08-12T00:06:18.274Z,101855.06
2022-08-12T00:09:03.603Z,101859.78
2022-08-12T00:11:49.064Z,101861.81
2022-08-12T00:14:34.388Z,101861.28
2022-08-12T00:17:21.191Z,101866.88
2022-08-12T00:20:08.369Z,101866.88
2022-08-12T00:22:59.228Z,101854.56
2022-08-12T00:26:20.636Z,101862.88
2022-08-12T00:29:04.896Z,101861.41
2022-08-12T00:31:50.217Z,101861.50
2022-08-12T00:34:36.014Z,101854.59
2022-08-12T00:37:21.593Z,101859.44
2022-08-12T00:40:11.543Z,101863.16
2022-08-12T00:42:41.205Z,101854.44
2022-08-12T00:45:08.992Z,101854.53
2022-08-12T00:47:36.220Z,101861.88
2022-08-12T00:50:04.017Z,101855.06
2022-08-12T00:52:30.986Z,101860.47
2022-08-12T00:55:01.037Z,101848.69
2022-08-12T00:57:35.681Z,101858.81
2022-08-12T01:00:08.716Z,101860.94
2022-08-12T01:02:38.907Z,101858.41
2022-08-12T01:05:43.893Z,101853.13
2022-08-12T01:08:30.214Z,101856.31
2022-08-12T01:11:16.013Z,101856.81
2022-08-12T01:13:47.776Z,101865.03
2022-08-12T01:16:22.719Z,101868.81
2022-08-12T01:18:51.981Z,101861.75
2022-08-12T01:21:27.811Z,101870.13
2022-08-12T01:24:32.272Z,101860.44
2022-08-12T01:27:00.385Z,101858.97
2022-08-12T01:29:33.122Z,101850.13
2022-08-12T01:32:06.452Z,101862.78
2022-08-12T01:34:39.456Z,101860.09
2022-08-12T01:37:08.262Z,101861.19
2022-08-12T01:39:39.061Z,101861.44
2022-08-12T01:42:26.354Z,101859.94
2022-08-12T01:44:56.473Z,101865.63
2022-08-12T01:48:06.026Z,101857.66
2022-08-12T01:50:33.433Z,101855.22
2022-08-12T01:53:10.721Z,101858.09
2022-08-12T01:55:40.897Z,101864.53
2022-08-12T01:58:26.075Z,101867.50
2022-08-12T02:01:01.517Z,101867.81
2022-08-12T02:03:55.643Z,101867.03
2022-08-12T02:07:05.187Z,101862.81
2022-08-12T02:10:08.509Z,101860.44
2022-08-12T02:12:47.820Z,101858.00
2022-08-12T02:15:26.151Z,101854.38
2022-08-12T02:18:17.201Z,101860.00
2022-08-12T02:20:58.707Z,101862.16
2022-08-12T02:23:27.484Z,101850.47
2022-08-12T02:25:59.702Z,101859.53
2022-08-12T02:28:27.000Z,101859.47
2022-08-12T02:30:54.761Z,101863.28
2022-08-12T02:33:21.674Z,101863.38
2022-08-12T02:35:48.725Z,101866.28
2022-08-12T02:38:16.162Z,101859.22
2022-08-12T02:40:45.548Z,101868.34
2022-08-12T02:43:33.086Z,101857.69
2022-08-12T02:46:13.775Z,101847.13
2022-08-12T02:48:45.933Z,101850.94
2022-08-12T02:51:14.214Z,101848.38
2022-08-12T02:53:41.038Z,101850.47
2022-08-12T02:56:07.855Z,101851.50
2022-08-12T02:58:36.094Z,101849.81
2022-08-12T03:01:11.732Z,101850.06
2022-08-12T03:03:40.225Z,101849.41
2022-08-12T03:06:16.944Z,101845.03
2022-08-12T03:08:47.086Z,101850.50
2022-08-12T03:11:27.378Z,101856.16
2022-08-12T03:14:00.522Z,101855.34
2022-08-12T03:16:30.567Z,101855.50
2022-08-12T03:19:00.182Z,101861.06
2022-08-12T03:22:05.777Z,101856.75
2022-08-12T03:24:17.412Z,101854.19
2022-08-12T03:26:45.677Z,101867.63
2022-08-12T03:29:12.803Z,101860.63
2022-08-12T03:31:39.524Z,101869.75
2022-08-12T03:34:08.671Z,101866.28
2022-08-12T03:36:39.478Z,101864.53
2022-08-12T03:39:18.768Z,101866.44
2022-08-12T03:42:07.764Z,101866.59
2022-08-12T03:44:59.767Z,101865.06
2022-08-12T03:48:11.129Z,101864.31
2022-08-12T03:51:04.166Z,101871.63
2022-08-12T03:53:51.101Z,101877.19
2022-08-12T03:56:37.025Z,101871.78
2022-08-12T03:59:24.557Z,101871.03
2022-08-12T04:01:58.352Z,101873.81
2022-08-12T04:04:26.878Z,101869.34
2022-08-12T04:06:54.947Z,101872.03
2022-08-12T04:09:22.507Z,101879.34
2022-08-12T04:12:08.898Z,101880.22
2022-08-12T04:14:36.024Z,101878.53
2022-08-12T04:17:04.207Z,101884.81
2022-08-12T04:19:31.221Z,101878.47
2022-08-12T04:22:02.384Z,101879.34
2022-08-12T04:24:34.242Z,101875.84
2022-08-12T04:27:00.969Z,101877.66
2022-08-12T04:30:30.290Z,101876.72
2022-08-12T04:32:14.483Z,101879.34
2022-08-12T04:34:42.533Z,101878.47
2022-08-12T04:37:09.241Z,101880.22
2022-08-12T04:39:38.290Z,101889.13
2022-08-12T04:42:05.086Z,101885.41
2022-08-12T04:44:32.534Z,101879.06
2022-08-12T04:46:59.254Z,101886.94
2022-08-12T04:49:26.148Z,101888.69
2022-08-12T04:51:55.209Z,101884.06
2022-08-12T04:54:27.074Z,101878.56
2022-08-12T04:57:03.718Z,101881.03
2022-08-12T04:59:46.409Z,101885.31
2022-08-12T05:02:17.072Z,101879.75
2022-08-12T05:04:50.505Z,101884.84
2022-08-12T05:07:17.437Z,101878.13
2022-08-12T05:09:58.992Z,101874.97
2022-08-12T05:12:33.583Z,101879.69
2022-08-12T05:15:00.779Z,101880.97
2022-08-12T05:17:28.039Z,101877.66
2022-08-12T05:19:57.139Z,101885.06
2022-08-12T05:22:26.071Z,101883.47
2022-08-12T05:24:53.980Z,101889.13
2022-08-12T05:27:23.044Z,101886.75
2022-08-12T05:30:07.936Z,101888.88
2022-08-12T05:32:36.694Z,101887.59
2022-08-12T05:35:06.925Z,101891.00
2022-08-12T05:37:35.014Z,101896.69
2022-08-12T05:40:06.819Z,101890.09
2022-08-12T05:42:35.394Z,101886.97
2022-08-12T05:45:02.213Z,101885.69
2022-08-12T05:47:42.519Z,101894.13
2022-08-12T05:50:16.067Z,101887.84
2022-08-12T05:52:42.818Z,101891.34
2022-08-12T05:55:11.745Z,101896.91
2022-08-12T05:57:39.210Z,101903.00
2022-08-12T06:00:06.705Z,101900.31
2022-08-12T06:02:38.361Z,101907.75
2022-08-12T06:05:10.596Z,101905.47
2022-08-12T06:08:01.131Z,101904.84
2022-08-12T06:10:32.579Z,101905.97
2022-08-12T06:13:04.996Z,101910.75
2022-08-12T06:15:33.168Z,101904.59
2022-08-12T06:18:13.900Z,101905.13
2022-08-12T06:20:43.653Z,101911.31
2022-08-12T06:23:11.571Z,101902.00
2022-08-12T06:25:38.288Z,101899.88
2022-08-12T06:28:15.691Z,101905.47
2022-08-12T06:30:42.480Z,101907.00
2022-08-12T06:34:01.091Z,101904.31
2022-08-12T06:35:58.921Z,101900.91
2022-08-12T06:38:26.916Z,101906.09
2022-08-12T06:41:15.260Z,101910.13
2022-08-12T06:44:06.921Z,101905.78
2022-08-12T06:46:31.178Z,101892.84
2022-08-12T06:49:01.745Z,101898.34
2022-08-12T06:51:31.159Z,101901.81
2022-08-12T06:53:58.741Z,101899.94
2022-08-12T06:56:40.224Z,101897.28
2022-08-12T06:59:14.857Z,101896.72
2022-08-12T07:01:41.616Z,101897.22
2022-08-12T07:04:36.893Z,101895.00
2022-08-12T07:07:09.326Z,101894.78
2022-08-12T07:10:01.422Z,101892.06
2022-08-12T07:12:27.739Z,101888.09
2022-08-12T07:14:56.705Z,101889.03
2022-08-12T07:17:25.135Z,101895.44
2022-08-12T07:19:53.874Z,101891.88
2022-08-12T07:22:23.425Z,101891.88
2022-08-12T07:25:10.484Z,101892.09
2022-08-12T07:27:41.022Z,101889.50
2022-08-12T07:30:09.981Z,101893.03
2022-08-12T07:32:36.858Z,101888.81
2022-08-12T07:35:04.271Z,101894.66
2022-08-12T07:37:31.559Z,101898.06
2022-08-12T07:40:00.280Z,101898.41
2022-08-12T07:42:29.602Z,101896.84
2022-08-12T07:44:56.715Z,101896.78
2022-08-12T07:47:24.488Z,101892.69
2022-08-12T07:50:04.303Z,101889.47
2022-08-12T07:52:42.864Z,101893.69
2022-08-12T07:55:10.864Z,101894.13
2022-08-12T07:57:59.851Z,101892.78
2022-08-12T08:00:29.229Z,101884.38
2022-08-12T08:02:56.031Z,101889.91
2022-08-12T08:05:24.520Z,101891.22
2022-08-12T08:07:53.452Z,101889.31
2022-08-12T08:10:21.177Z,101892.88
2022-08-12T08:12:53.970Z,101891.66
2022-08-12T08:15:44.559Z,101889.81
2022-08-12T08:18:26.952Z,101885.53
2022-08-12T08:20:55.418Z,101883.03
2022-08-12T08:23:22.205Z,101885.47
2022-08-12T08:25:56.610Z,101875.63
2022-08-12T08:28:23.570Z,101873.44
2022-08-12T08:30:50.485Z,101876.19
2022-08-12T08:33:23.492Z,101879.47
2022-08-12T08:36:07.636Z,101870.00
2022-08-12T08:38:57.962Z,101869.91
2022-08-12T08:42:15.825Z,101878.38
2022-08-12T08:44:30.573Z,101874.75
2022-08-12T08:46:57.372Z,101874.25
2022-08-12T08:49:24.991Z,101883.94
2022-08-12T08:51:51.716Z,101880.47
2022-08-12T08:54:18.490Z,101880.25
2022-08-12T08:56:50.258Z,101882.16
2022-08-12T08:59:19.439Z,101872.16
2022-08-12T09:01:47.307Z,101872.97
2022-08-12T09:05:09.454Z,101866.22
2022-08-12T09:07:16.850Z,101862.50
2022-08-12T09:10:03.739Z,101879.72
2022-08-12T09:12:55.034Z,101874.88
2022-08-12T09:15:35.490Z,101864.19
2022-08-12T09:18:12.036Z,101872.66
2022-08-12T09:20:40.368Z,101870.94
2022-08-12T09:25:58.458Z,101865.06
2022-08-12T09:28:33.091Z,101865.56
2022-08-12T09:31:00.474Z,101855.25
2022-08-12T09:34:29.363Z,101860.13
2022-08-12T09:36:31.024Z,101848.84
2022-08-12T09:40:01.956Z,101853.03
2022-08-12T09:42:54.107Z,101852.91
2022-08-12T09:45:23.307Z,101850.94
2022-08-12T09:47:59.656Z,101839.28
2022-08-12T09:50:27.651Z,101838.69
2022-08-12T09:54:31.443Z,101847.19
2022-08-12T09:56:06.065Z,101844.47
2022-08-12T09:58:57.595Z,101835.03
2022-08-12T10:01:35.559Z,101830.53
2022-08-12T10:04:15.072Z,101818.88
2022-08-12T10:06:55.399Z,101823.97
2022-08-12T10:09:28.303Z,101817.97
2022-08-12T10:12:32.805Z,101798.81
2022-08-12T10:15:00.186Z,101804.53
2022-08-12T10:17:27.064Z,101803.00
2022-08-12T10:19:53.891Z,101800.25
2022-08-12T10:22:39.327Z,101791.78
2022-08-12T10:26:35.906Z,101790.66
2022-08-12T10:28:33.842Z,101792.25
2022-08-12T10:31:01.392Z,101795.38
2022-08-12T10:33:33.551Z,101789.06
2022-08-12T10:36:02.054Z,101787.47
2022-08-12T10:38:34.338Z,101788.44
2022-08-12T10:41:57.892Z,101784.63
2022-08-12T10:44:16.956Z,101770.84
2022-08-12T10:46:49.818Z,101777.47
2022-08-12T10:50:02.486Z,101776.34
2022-08-12T10:52:34.552Z,101794.53
2022-08-12T10:54:56.315Z,101775.38
2022-08-12T10:58:14.363Z,101771.38
2022-08-12T11:00:34.056Z,101773.81
2022-08-12T11:04:22.637Z,101765.41
2022-08-12T11:07:03.423Z,101765.69
2022-08-12T11:08:43.218Z,101758.66
2022-08-12T11:11:13.729Z,101764.13
2022-08-12T11:13:49.035Z,101753.06
2022-08-12T11:16:22.613Z,101756.03
2022-08-12T11:18:55.156Z,101752.41
2022-08-12T11:21:51.217Z,101750.41
2022-08-12T11:24:18.725Z,101750.78
2022-08-12T11:26:59.216Z,101738.25
2022-08-12T11:29:27.298Z,101742.53
2022-08-12T11:32:14.137Z,101738.16
2022-08-12T11:34:52.924Z,101737.50
2022-08-12T11:37:25.875Z,101723.00
2022-08-12T11:42:46.029Z,101735.59
2022-08-12T11:45:16.352Z,101729.84
2022-08-12T11:47:44.050Z,101725.31
2022-08-12T11:50:11.856Z,101726.84
2022-08-12T11:52:55.649Z,101729.00
2022-08-12T11:55:24.775Z,101727.28
2022-08-12T11:58:42.352Z,101720.66
2022-08-12T12:03:43.705Z,101711.94
2022-08-12T12:06:18.002Z,101717.66
2022-08-12T12:08:50.900Z,101726.16
2022-08-12T12:11:18.894Z,101720.13
2022-08-12T12:14:07.813Z,101719.81
2022-08-12T12:16:33.638Z,101717.13
2022-08-12T12:19:05.792Z,101710.81
2022-08-12T12:21:48.619Z,101700.09
2022-08-12T12:24:21.736Z,101706.31
2022-08-12T12:27:00.046Z,101709.34
2022-08-12T12:30:13.914Z,101708.41
2022-08-12T12:32:19.420Z,101703.78
2022-08-12T12:35:14.041Z,101704.50
2022-08-12T12:38:04.554Z,101695.63
2022-08-12T12:40:39.760Z,101696.13
2022-08-12T12:43:07.289Z,101693.28
2022-08-12T12:45:35.701Z,101687.75
2022-08-12T12:48:02.426Z,101694.84
2022-08-12T12:50:45.254Z,101696.94
2022-08-12T12:54:07.030Z,101696.44
2022-08-12T12:56:21.181Z,101697.56
2022-08-12T12:59:02.794Z,101690.47
2022-08-12T13:01:30.908Z,101692.63
2022-08-12T13:04:02.482Z,101680.69
2022-08-12T13:06:31.424Z,101666.63
2022-08-12T13:09:02.625Z,101683.69
2022-08-12T13:11:40.834Z,101678.56
2022-08-12T13:14:29.103Z,101688.25
2022-08-12T13:17:02.728Z,101689.97
2022-08-12T13:19:37.829Z,101676.94
2022-08-12T13:22:23.526Z,101686.50
2022-08-12T13:24:56.212Z,101681.94
2022-08-12T13:27:35.021Z,101683.41
2022-08-12T13:30:10.782Z,101686.69
2022-08-12T13:32:56.664Z,101688.59
2022-08-12T13:36:04.931Z,101678.31
2022-08-12T13:38:39.478Z,101675.66
2022-08-12T13:41:11.197Z,101678.25
2022-08-12T13:43:40.817Z,101666.50
2022-08-12T13:46:12.044Z,101662.72
2022-08-12T13:48:45.070Z,101669.13
2022-08-12T13:51:13.421Z,101660.66
2022-08-12T13:53:57.633Z,101662.72
2022-08-12T13:56:29.901Z,101656.78
2022-08-12T13:59:02.656Z,101662.28
2022-08-12T14:01:30.957Z,101649.78
2022-08-12T14:04:04.490Z,101644.44
2022-08-12T14:06:32.047Z,101648.78
2022-08-12T14:08:59.658Z,101652.69
2022-08-12T14:11:27.939Z,101644.31
2022-08-12T14:14:03.662Z,101636.63
2022-08-12T14:16:48.960Z,101653.94
2022-08-12T14:19:25.569Z,101653.63
2022-08-12T14:22:04.476Z,101647.28
2022-08-12T14:24:41.040Z,101637.78
2022-08-12T14:27:10.276Z,101643.22
2022-08-12T14:30:06.043Z,101644.06
2022-08-12T14:32:35.564Z,101644.88
2022-08-12T14:35:09.450Z,101646.06
2022-08-12T14:37:54.871Z,101641.84
2022-08-12T14:40:27.492Z,101642.91
2022-08-12T14:42:55.071Z,101637.66
2022-08-12T14:45:37.016Z,101634.28
2022-08-12T14:48:12.673Z,101636.38
2022-08-12T14:51:09.520Z,101635.41
2022-08-12T14:59:24.128Z,101621.16
2022-08-12T15:01:51.998Z,101616.69
2022-08-12T15:04:26.213Z,101604.88
2022-08-12T15:06:53.338Z,101596.63
2022-08-12T15:09:29.140Z,101601.47
2022-08-12T15:12:04.133Z,101593.72
2022-08-12T15:14:31.832Z,101594.31
2022-08-12T15:17:00.236Z,101605.03
2022-08-12T15:20:30.870Z,101600.13
2022-08-12T15:22:38.834Z,101598.38
2022-08-12T15:25:07.188Z,101604.56
2022-08-12T15:28:05.230Z,101603.06
2022-08-12T15:30:31.360Z,101604.09
2022-08-12T15:32:58.489Z,101594.03
2022-08-12T15:35:38.101Z,101588.72
2022-08-12T15:38:18.667Z,101588.78
2022-08-12T15:40:50.110Z,101592.03
2022-08-12T15:43:35.571Z,101594.81
2022-08-12T15:46:06.439Z,101582.53
2022-08-12T15:48:34.161Z,101584.06
2022-08-12T15:51:02.827Z,101592.19
2022-08-12T15:53:53.173Z,101586.63
2022-08-12T15:56:29.585Z,101574.63
2022-08-12T15:58:59.001Z,101575.19
2022-08-12T16:01:35.720Z,101578.56
2022-08-12T16:04:05.507Z,101578.41
2022-08-12T16:09:45.394Z,101579.72
2022-08-12T16:12:11.243Z,101578.31
2022-08-12T16:14:39.043Z,101582.06
2022-08-12T16:17:08.988Z,101577.81
2022-08-12T16:20:04.002Z,101576.34
2022-08-12T16:22:26.491Z,101582.78
2022-08-12T16:24:54.212Z,101573.63
2022-08-12T16:27:23.890Z,101575.03
2022-08-12T16:29:57.401Z,101570.00
2022-08-12T16:32:31.805Z,101568.66
2022-08-12T16:34:59.915Z,101568.97
2022-08-12T16:37:32.415Z,101562.25
2022-08-12T16:40:04.796Z,101564.31
2022-08-12T16:42:39.206Z,101569.63
2022-08-12T16:45:13.782Z,101565.72
2022-08-12T16:47:58.670Z,101560.13
2022-08-12T16:50:30.901Z,101566.16
2022-08-12T16:53:02.165Z,101559.47
2022-08-12T16:55:42.521Z,101556.41
2022-08-12T16:58:28.554Z,101563.09
2022-08-12T17:00:58.808Z,101555.56
2022-08-12T17:03:30.567Z,101554.78
2022-08-12T17:05:57.383Z,101546.69
2022-08-12T17:08:29.170Z,101543.16
2022-08-12T17:10:56.456Z,101546.97
2022-08-12T17:13:26.358Z,101540.25
2022-08-12T17:16:04.809Z,101544.41
2022-08-12T17:18:43.430Z,101545.44
2022-08-12T17:21:19.531Z,101549.66
2022-08-12T17:23:53.495Z,101531.22
2022-08-12T17:26:22.464Z,101525.78
2022-08-12T17:28:56.268Z,101529.09
2022-08-12T17:31:59.566Z,101527.06
2022-08-12T17:34:30.039Z,101525.66
2022-08-12T17:36:56.859Z,101528.13
2022-08-12T17:40:06.221Z,101536.06
2022-08-12T17:42:34.907Z,101527.00
2022-08-12T17:45:17.165Z,101524.31
2022-08-12T17:48:01.842Z,101528.53
2022-08-12T17:50:34.614Z,101526.91
2022-08-12T17:53:02.965Z,101523.22
2022-08-12T17:55:43.501Z,101528.88
2022-08-12T17:58:14.399Z,101525.94
2022-08-12T18:00:43.798Z,101524.78
2022-08-12T18:03:12.647Z,101530.28
2022-08-12T18:06:07.663Z,101536.91
2022-08-12T18:08:35.809Z,101532.56
2022-08-12T18:12:05.380Z,101546.13
2022-08-12T18:14:09.415Z,101545.16
2022-08-12T18:16:41.330Z,101542.72
2022-08-12T18:19:09.068Z,101539.69
2022-08-12T18:22:02.274Z,101543.75
2022-08-12T18:24:26.447Z,101547.69
2022-08-12T18:26:56.717Z,101547.84
2022-08-12T18:29:27.151Z,101545.25
2022-08-12T18:32:35.098Z,101554.22
2022-08-12T18:34:57.889Z,101556.84
2022-08-12T18:37:41.724Z,101553.97
2022-08-12T18:40:27.835Z,101557.53
2022-08-12T18:42:54.814Z,101558.59
2022-08-12T18:45:31.420Z,101559.44
2022-08-12T18:48:13.674Z,101566.94
2022-08-12T18:50:49.399Z,101568.66
2022-08-12T18:54:07.241Z,101574.13
2022-08-12T18:56:07.462Z,101562.41
2022-08-12T18:58:59.947Z,101561.66
2022-08-12T19:02:22.225Z,101572.59
2022-08-12T19:04:15.804Z,101579.91
2022-08-12T19:06:46.485Z,101580.88
2022-08-12T19:09:15.093Z,101577.25
2022-08-12T19:12:00.981Z,101579.75
2022-08-12T19:14:32.759Z,101577.13
2022-08-12T19:17:05.240Z,101573.31
2022-08-12T19:19:37.259Z,101575.88
2022-08-12T19:22:08.480Z,101570.34
2022-08-12T19:24:53.979Z,101574.63
2022-08-12T19:27:21.652Z,101575.56
2022-08-12T19:30:06.167Z,101576.34
2022-08-12T19:32:34.356Z,101580.59
2022-08-12T19:38:04.145Z,101572.84
2022-08-12T19:40:37.251Z,101570.88
2022-08-12T19:43:19.480Z,101574.16
2022-08-12T19:45:53.655Z,101566.75
2022-08-12T19:48:22.923Z,101562.56
2022-08-12T19:50:53.563Z,101563.94
2022-08-12T19:53:23.070Z,101562.47
2022-08-12T19:55:54.830Z,101569.19
2022-08-12T19:58:23.064Z,101566.78
2022-08-12T20:00:53.229Z,101569.16
2022-08-12T20:03:39.526Z,101577.00
2022-08-12T20:06:13.796Z,101570.19
2022-08-12T20:08:49.312Z,101581.59
2022-08-12T20:12:14.050Z,101573.78
2022-08-12T20:14:10.326Z,101582.47
2022-08-12T20:16:54.395Z,101597.22
2022-08-12T20:19:52.718Z,101589.56
2022-08-12T20:22:30.022Z,101589.06
2022-08-12T20:25:01.716Z,101594.13
2022-08-12T20:28:02.415Z,101600.84
2022-08-12T20:30:20.777Z,101590.41
2022-08-12T20:33:17.872Z,101586.28
2022-08-12T20:36:13.836Z,101585.56
2022-08-12T20:38:35.695Z,101593.22
2022-08-12T20:41:16.765Z,101586.44
2022-08-12T20:43:45.990Z,101590.38
2022-08-12T20:46:13.708Z,101586.13
2022-08-12T20:48:43.672Z,101583.91
2022-08-12T20:51:15.829Z,101589.63
2022-08-12T20:53:58.179Z,101592.72
2022-08-12T20:56:37.008Z,101585.75
2022-08-12T20:59:07.160Z,101595.28
2022-08-12T21:01:46.034Z,101591.28
2022-08-12T21:04:32.735Z,101593.63
2022-08-12T21:07:08.299Z,101588.53
2022-08-12T21:09:40.634Z,101592.56
2022-08-12T21:12:24.782Z,101586.59
2022-08-12T21:15:17.128Z,101588.69
2022-08-12T21:18:01.148Z,101591.88
2022-08-12T21:20:35.620Z,101599.53
2022-08-12T21:23:05.831Z,101607.28
2022-08-12T21:25:44.108Z,101599.59
2022-08-12T21:28:13.263Z,101591.78
2022-08-12T21:31:10.540Z,101601.19
2022-08-12T21:33:58.436Z,101591.63
2022-08-12T21:36:22.882Z,101592.06
2022-08-12T21:39:19.201Z,101586.97
2022-08-12T21:41:53.640Z,101589.06
2022-08-12T21:45:47.442Z,101588.53
2022-08-12T21:47:22.437Z,101591.44
2022-08-12T21:50:06.502Z,101591.88
2022-08-12T21:52:48.990Z,101590.38
2022-08-12T21:55:17.668Z,101580.94
2022-08-12T21:57:53.196Z,101584.75
2022-08-12T22:00:31.819Z,101581.41
2022-08-12T22:04:03.895Z,101584.69
2022-08-12T22:06:26.109Z,101588.59
2022-08-12T22:09:03.918Z,101601.66
2022-08-12T22:11:42.156Z,101601.88
2022-08-12T22:14:21.933Z,101602.09
2022-08-12T22:16:52.140Z,101598.50
2022-08-12T22:19:22.968Z,101599.38
2022-08-12T22:21:54.759Z,101605.91
2022-08-12T22:24:26.483Z,101598.81
2022-08-12T22:26:56.182Z,101608.06
2022-08-12T22:29:42.418Z,101610.13
2022-08-12T22:32:11.277Z,101611.22
2022-08-12T22:34:39.000Z,101609.47
2022-08-12T22:37:11.527Z,101611.66
2022-08-12T22:39:48.969Z,101613.94
2022-08-12T22:42:35.146Z,101608.72
2022-08-12T22:45:23.050Z,101604.47
2022-08-12T22:47:54.913Z,101602.84
2022-08-12T22:50:27.792Z,101600.16
2022-08-12T22:53:17.284Z,101611.25
2022-08-12T22:56:00.450Z,101607.06
2022-08-12T22:58:33.965Z,101606.41
2022-08-12T23:01:02.318Z,101604.91
2022-08-12T23:03:49.620Z,101606.84
2022-08-12T23:06:23.848Z,101596.19
2022-08-12T23:08:54.811Z,101604.56
2022-08-12T23:11:25.411Z,101605.63
2022-08-12T23:14:04.265Z,101601.38
2022-08-12T23:16:34.153Z,101598.03
2022-08-12T23:19:17.842Z,101598.25
2022-08-12T23:22:06.456Z,101604.88
2022-08-12T23:24:53.732Z,101601.59
2022-08-12T23:27:50.336Z,101602.66
2022-08-12T23:30:25.133Z,101603.00
2022-08-12T23:32:59.885Z,101607.66
2022-08-12T23:35:53.696Z,101612.31
2022-08-12T23:38:30.354Z,101612.53
2022-08-12T23:40:59.947Z,101614.47
2022-08-12T23:43:39.206Z,101618.94
2022-08-12T23:46:11.305Z,101615.34
2022-08-12T23:48:38.918Z,101603.72
2022-08-12T23:51:22.094Z,101601.22
2022-08-12T23:53:51.048Z,101600.75
2022-08-12T23:56:18.090Z,101608.69
2022-08-12T23:58:52.649Z,101600.88
